Time;durP1;ratioP1;P1;durP2;ratioP2;P2;SDS_P1;SDS_P2;PMS_P1;PMS_P2;Temp;Humidity;BMP_temperature;BMP_pressure;BME280_temperature;BME280_humidity;BME280_pressure;Samples;Min_cycle;Max_cycle;Signal;HPM_P1;HPM_P2
2021/01/24 00:00:53;;;;;;;2.33;1.15;;;5.50;99.90;;;;;;5080704;28;20062;-62
2021/01/24 00:03:21;;;;;;;1.50;1.40;;;5.60;99.90;;;;;;5079352;28;20546;-64
2021/01/24 00:05:47;;;;;;;2.72;1.23;;;5.50;99.90;;;;;;5076591;28;20604;-62
2021/01/24 00:08:13;;;;;;;3.97;1.90;;;5.30;99.90;;;;;;5079408;28;20083;-61
2021/01/24 00:10:39;;;;;;;3.08;1.48;;;5.40;99.90;;;;;;5075807;28;20455;-62
2021/01/24 00:13:05;;;;;;;3.75;1.45;;;5.60;99.90;;;;;;5080296;28;20019;-62
2021/01/24 00:15:31;;;;;;;2.40;1.63;;;5.50;99.90;;;;;;5074706;28;20108;-61
2021/01/24 00:17:57;;;;;;;4.70;1.30;;;5.60;99.90;;;;;;5087451;28;20024;-63
2021/01/24 00:20:23;;;;;;;4.00;1.50;;;5.50;99.90;;;;;;5087305;28;20451;-62
2021/01/24 00:22:48;;;;;;;4.40;1.30;;;5.20;99.90;;;;;;5080986;28;20540;-62
2021/01/24 00:25:14;;;;;;;2.58;1.20;;;5.20;99.90;;;;;;5074745;28;20060;-62
2021/01/24 00:27:40;;;;;;;5.65;1.20;;;5.20;99.90;;;;;;5081034;28;20059;-62
2021/01/24 00:30:07;;;;;;;2.83;1.38;;;5.40;99.90;;;;;;5074578;28;20146;-62
2021/01/24 00:32:33;;;;;;;2.40;1.23;;;5.40;99.90;;;;;;5080684;28;20111;-62
2021/01/24 00:34:59;;;;;;;2.25;1.45;;;5.20;99.90;;;;;;5074169;28;20086;-63
2021/01/24 00:37:25;;;;;;;5.15;1.38;;;5.20;99.90;;;;;;5080892;28;20071;-62
2021/01/24 00:39:51;;;;;;;3.17;1.27;;;4.90;99.90;;;;;;5072924;28;20070;-61
2021/01/24 00:42:17;;;;;;;1.33;0.88;;;5.00;99.90;;;;;;5082101;28;20024;-62
2021/01/24 00:44:42;;;;;;;3.25;1.27;;;4.90;99.90;;;;;;5071836;28;20047;-61
2021/01/24 00:47:08;;;;;;;3.65;1.27;;;5.00;99.90;;;;;;5082708;28;20035;-62
2021/01/24 00:49:36;;;;;;;1.98;1.27;;;5.00;99.90;;;;;;5071428;28;20025;-62
2021/01/24 00:52:02;;;;;;;2.22;1.30;;;5.00;99.90;;;;;;5082863;28;20036;-64
2021/01/24 00:54:28;;;;;;;2.67;1.40;;;5.20;99.90;;;;;;5071681;28;20100;-62
2021/01/24 00:56:53;;;;;;;3.30;1.63;;;5.30;99.90;;;;;;5082776;28;20443;-62
2021/01/24 00:59:19;;;;;;;3.85;1.98;;;5.20;99.90;;;;;;5071418;28;20032;-62
2021/01/24 01:01:45;;;;;;;1.90;1.65;;;5.20;99.90;;;;;;5079189;28;20102;-64
2021/01/24 01:04:10;;;;;;;4.57;1.83;;;5.20;99.90;;;;;;5091648;28;20063;-61
2021/01/24 01:06:36;;;;;;;3.70;1.60;;;5.20;99.90;;;;;;5084996;28;20028;-63
2021/01/24 01:09:02;;;;;;;3.55;2.20;;;5.20;99.90;;;;;;5071436;28;20444;-62
2021/01/24 01:11:28;;;;;;;4.95;1.63;;;5.10;99.90;;;;;;5081332;28;20020;-61
2021/01/24 01:13:53;;;;;;;4.95;2.08;;;5.00;99.90;;;;;;5072649;28;20569;-62
2021/01/24 01:16:19;;;;;;;2.30;1.77;;;5.10;99.90;;;;;;5078578;28;20426;-63
2021/01/24 01:18:45;;;;;;;6.35;2.17;;;5.00;99.90;;;;;;5086665;28;20102;-61
2021/01/24 01:21:11;;;;;;;4.55;2.38;;;5.10;99.90;;;;;;5084347;28;20036;-69
2021/01/24 01:23:37;;;;;;;8.40;2.22;;;5.00;99.90;;;;;;5074718;28;20025;-67
2021/01/24 01:26:03;;;;;;;5.68;2.00;;;5.00;99.90;;;;;;5077283;28;20115;-62
2021/01/24 01:28:28;;;;;;;4.38;2.38;;;4.80;99.90;;;;;;5075677;28;20028;-62
2021/01/24 01:30:54;;;;;;;5.30;2.25;;;4.90;99.90;;;;;;5075978;28;20043;-62
2021/01/24 01:33:20;;;;;;;2.38;1.75;;;4.80;99.90;;;;;;5077119;28;20037;-62
2021/01/24 01:35:45;;;;;;;5.95;2.42;;;4.70;99.90;;;;;;5074518;28;20523;-62
2021/01/24 01:38:11;;;;;;;5.65;2.20;;;4.80;99.90;;;;;;5078045;28;20408;-61
2021/01/24 01:40:37;;;;;;;2.35;1.83;;;4.70;99.90;;;;;;5073319;28;20040;-70
2021/01/24 01:43:03;;;;;;;5.63;1.90;;;4.70;99.90;;;;;;5079184;28;20619;-62
2021/01/24 01:45:28;;;;;;;3.63;1.80;;;4.60;99.90;;;;;;5072774;28;20534;-62
2021/01/24 01:47:55;;;;;;;2.80;2.03;;;4.70;99.90;;;;;;5079397;28;20085;-62
2021/01/24 01:50:21;;;;;;;4.25;2.58;;;4.60;99.90;;;;;;5072929;28;20031;-62
2021/01/24 01:52:47;;;;;;;2.67;2.30;;;4.50;99.90;;;;;;5079286;28;20025;-66
2021/01/24 01:55:13;;;;;;;3.75;2.50;;;4.50;99.90;;;;;;5072865;28;20032;-62
2021/01/24 01:57:39;;;;;;;7.78;2.95;;;4.60;99.90;;;;;;5079345;28;20523;-62
2021/01/24 02:00:07;;;;;;;3.38;2.50;;;4.60;99.90;;;;;;5072692;28;20032;-62
2021/01/24 02:02:58;;;;;;;3.58;2.05;;;4.50;99.90;;;;;;5079085;28;20025;-62
2021/01/24 02:05:30;;;;;;;2.08;1.38;;;4.40;99.90;;;;;;5067424;28;20044;-63
2021/01/24 02:08:02;;;;;;;2.67;1.85;;;4.50;99.90;;;;;;5079124;28;20031;-62
2021/01/24 02:10:36;;;;;;;2.22;1.90;;;4.50;99.90;;;;;;5072669;28;20028;-62
2021/01/24 02:13:11;;;;;;;2.35;2.00;;;4.40;99.90;;;;;;5081699;28;20012;-62
2021/01/24 02:15:41;;;;;;;3.90;1.73;;;4.40;99.90;;;;;;5083751;28;20044;-65
2021/01/24 02:18:09;;;;;;;3.13;1.55;;;4.40;99.90;;;;;;5085961;28;20020;-63
2021/01/24 02:20:48;;;;;;;2.50;1.35;;;4.40;99.90;;;;;;5083404;28;20535;-61
2021/01/24 02:23:17;;;;;;;2.63;0.90;;;4.40;99.90;;;;;;5083290;28;20106;-62
2021/01/24 02:26:07;;;;;;;2.58;1.20;;;4.50;99.90;;;;;;5083503;28;20047;-62
2021/01/24 02:28:36;;;;;;;2.75;1.02;;;4.40;99.90;;;;;;5074336;28;20043;-62
2021/01/24 02:31:04;;;;;;;1.00;0.80;;;4.50;99.90;;;;;;5075720;28;20028;-62
2021/01/24 02:33:34;;;;;;;1.67;0.68;;;4.40;99.90;;;;;;5074721;28;20025;-65
2021/01/24 02:36:01;;;;;;;3.90;0.70;;;4.20;99.90;;;;;;5075247;28;20502;-63
2021/01/24 02:38:28;;;;;;;1.23;0.70;;;4.40;99.90;;;;;;5075256;28;20404;-65
2021/01/24 02:40:55;;;;;;;1.75;0.88;;;4.50;99.90;;;;;;5074623;28;20048;-62
2021/01/24 02:43:22;;;;;;;3.53;1.20;;;4.40;99.90;;;;;;5075792;28;20079;-62
2021/01/24 02:45:51;;;;;;;1.90;0.98;;;4.30;99.90;;;;;;5073360;28;20131;-62
2021/01/24 02:48:18;;;;;;;3.58;0.80;;;4.30;99.90;;;;;;5076470;28;20020;-62
2021/01/24 02:50:46;;;;;;;1.50;0.80;;;4.30;99.90;;;;;;5072989;28;20056;-68
2021/01/24 02:53:13;;;;;;;2.40;0.65;;;4.30;99.90;;;;;;5077085;28;20028;-62
2021/01/24 02:55:39;;;;;;;1.65;0.70;;;4.30;99.90;;;;;;5072441;28;20071;-63
2021/01/24 02:58:05;;;;;;;3.28;0.50;;;4.20;99.90;;;;;;5078039;28;20033;-62
2021/01/24 03:00:30;;;;;;;1.92;0.70;;;4.10;99.90;;;;;;5072018;28;20101;-62
2021/01/24 03:02:56;;;;;;;2.95;0.65;;;4.20;99.90;;;;;;5078334;28;20021;-62
2021/01/24 03:05:23;;;;;;;1.35;0.90;;;4.10;99.90;;;;;;5071807;28;20028;-62
2021/01/24 03:07:50;;;;;;;1.38;0.88;;;4.00;99.90;;;;;;5078310;28;20016;-62
2021/01/24 03:10:16;;;;;;;0.82;0.60;;;4.00;99.90;;;;;;5072031;28;20042;-62
2021/01/24 03:12:50;;;;;;;2.05;0.70;;;4.10;99.90;;;;;;5078030;28;20013;-68
2021/01/24 03:15:17;;;;;;;0.93;0.60;;;4.00;99.90;;;;;;5071918;28;20028;-62
2021/01/24 03:17:46;;;;;;;1.00;0.82;;;4.00;99.90;;;;;;5082384;28;20020;-68
2021/01/24 03:20:14;;;;;;;2.05;0.57;;;4.00;99.90;;;;;;5086258;28;20504;-62
2021/01/24 03:22:42;;;;;;;1.15;0.70;;;3.80;99.90;;;;;;5078089;28;20028;-62
2021/01/24 03:25:08;;;;;;;1.50;0.80;;;3.90;99.90;;;;;;5071788;28;20691;-62
2021/01/24 03:27:35;;;;;;;1.42;0.80;;;3.90;99.90;;;;;;5078289;28;20025;-62
2021/01/24 03:30:01;;;;;;;3.33;1.00;;;3.90;99.90;;;;;;5086700;28;20029;-69
2021/01/24 03:32:28;;;;;;;0.98;0.82;;;3.90;99.90;;;;;;5078273;28;20024;-62
2021/01/24 03:34:53;;;;;;;1.40;0.85;;;3.90;99.90;;;;;;5070085;28;20216;-66
2021/01/24 03:37:19;;;;;;;1.52;0.80;;;4.00;99.90;;;;;;5079598;28;20123;-66
2021/01/24 03:39:45;;;;;;;1.42;0.60;;;3.80;99.90;;;;;;5072309;28;20035;-70
2021/01/24 03:42:11;;;;;;;1.00;0.80;;;3.90;99.90;;;;;;5083883;28;20143;-62
2021/01/24 03:44:37;;;;;;;0.73;0.70;;;3.80;99.90;;;;;;5072550;28;20063;-62
2021/01/24 03:47:02;;;;;;;1.30;0.70;;;3.90;99.90;;;;;;5081117;28;20061;-62
2021/01/24 03:49:28;;;;;;;0.85;0.55;;;4.00;99.90;;;;;;5092852;28;20024;-65
2021/01/24 03:51:54;;;;;;;0.50;0.50;;;4.00;99.90;;;;;;5084688;28;20040;-70
2021/01/24 03:54:20;;;;;;;1.63;0.70;;;3.90;99.90;;;;;;5072769;28;20038;-62
2021/01/24 03:56:45;;;;;;;1.17;0.68;;;3.90;99.90;;;;;;5084081;28;20031;-62
2021/01/24 03:59:11;;;;;;;1.17;0.80;;;3.90;99.90;;;;;;5072773;28;20070;-62
2021/01/24 04:01:37;;;;;;;2.20;0.57;;;3.80;99.90;;;;;;5083220;28;20504;-62
2021/01/24 04:04:03;;;;;;;1.48;0.43;;;3.80;99.90;;;;;;5073086;28;20464;-62
2021/01/24 04:06:29;;;;;;;1.42;0.50;;;3.80;99.90;;;;;;5081848;28;20024;-62
2021/01/24 04:08:55;;;;;;;1.00;0.77;;;3.80;99.90;;;;;;5074076;28;20040;-69
2021/01/24 04:11:20;;;;;;;0.60;0.40;;;3.80;99.90;;;;;;5080911;28;20016;-62
2021/01/24 04:13:46;;;;;;;1.60;0.50;;;3.90;99.90;;;;;;5075343;28;20043;-64
2021/01/24 04:16:12;;;;;;;0.80;0.63;;;3.90;99.90;;;;;;5079374;28;20012;-62
2021/01/24 04:18:38;;;;;;;0.90;0.43;;;4.00;99.90;;;;;;5088545;28;20114;-62
2021/01/24 04:21:05;;;;;;;0.47;0.32;;;4.10;99.90;;;;;;5085493;28;20115;-62
2021/01/24 04:23:31;;;;;;;0.88;0.35;;;3.90;99.90;;;;;;5077444;28;20025;-62
2021/01/24 04:25:57;;;;;;;0.82;0.40;;;3.90;99.90;;;;;;5077099;28;20024;-63
2021/01/24 04:28:23;;;;;;;0.65;0.47;;;4.00;99.90;;;;;;5078383;28;20132;-62
2021/01/24 04:30:49;;;;;;;1.85;0.40;;;4.00;99.90;;;;;;5075911;28;20162;-62
2021/01/24 04:33:14;;;;;;;0.30;0.30;;;4.00;99.90;;;;;;5079371;28;20099;-62
2021/01/24 04:35:40;;;;;;;0.88;0.40;;;4.10;99.90;;;;;;5074523;28;20031;-62
2021/01/24 04:38:06;;;;;;;1.40;0.40;;;4.00;99.90;;;;;;5080462;28;20040;-65
2021/01/24 04:40:32;;;;;;;0.63;0.50;;;4.00;99.90;;;;;;5074377;28;20051;-62
2021/01/24 04:42:58;;;;;;;1.23;0.52;;;3.90;99.90;;;;;;5080739;28;20032;-61
2021/01/24 04:45:23;;;;;;;0.55;0.32;;;3.90;99.90;;;;;;5073886;28;20126;-62
2021/01/24 04:47:52;;;;;;;0.60;0.40;;;3.90;99.90;;;;;;5080681;28;20107;-66
2021/01/24 04:50:18;;;;;;;0.40;0.40;;;3.90;99.90;;;;;;5073721;28;20039;-63
2021/01/24 04:52:45;;;;;;;0.73;0.40;;;4.10;99.90;;;;;;5080383;28;20028;-62
2021/01/24 04:55:12;;;;;;;1.30;0.43;;;4.00;99.90;;;;;;5074090;28;20097;-65
2021/01/24 04:57:37;;;;;;;0.73;0.57;;;3.90;99.90;;;;;;5070231;28;20028;-62
2021/01/24 05:00:07;;;;;;;0.70;0.50;;;3.80;99.90;;;;;;5073386;28;20040;-62
2021/01/24 05:02:33;;;;;;;0.52;0.52;;;3.80;99.90;;;;;;5096151;28;20036;-63
2021/01/24 05:04:59;;;;;;;0.82;0.40;;;3.80;99.90;;;;;;5072743;28;20107;-62
2021/01/24 05:07:25;;;;;;;0.85;0.55;;;3.90;99.90;;;;;;5080990;28;20103;-72
2021/01/24 05:09:51;;;;;;;0.65;0.50;;;3.90;99.90;;;;;;5071704;28;20016;-62
2021/01/24 05:12:18;;;;;;;1.98;0.50;;;3.70;99.90;;;;;;5069712;28;20082;-71
2021/01/24 05:14:48;;;;;;;0.93;0.60;;;3.80;99.90;;;;;;5071665;28;20147;-62
2021/01/24 05:17:14;;;;;;;1.70;0.70;;;3.80;99.90;;;;;;5082564;28;20576;-62
2021/01/24 05:19:41;;;;;;;1.20;0.40;;;3.90;99.90;;;;;;5090246;28;20032;-62
2021/01/24 05:22:07;;;;;;;3.58;0.98;;;3.80;99.90;;;;;;5081830;28;20493;-62
2021/01/24 05:24:34;;;;;;;3.53;0.75;;;3.90;99.90;;;;;;5071106;28;20016;-63
2021/01/24 05:27:11;;;;;;;1.40;0.63;;;3.90;99.90;;;;;;5082392;28;20085;-63
2021/01/24 05:29:42;;;;;;;2.83;0.73;;;3.80;99.90;;;;;;5070708;28;20032;-62
2021/01/24 05:32:10;;;;;;;3.83;0.93;;;3.80;99.90;;;;;;5081663;28;20024;-62
2021/01/24 05:34:35;;;;;;;3.35;0.98;;;3.90;99.90;;;;;;5070656;28;20020;-62
2021/01/24 05:37:02;;;;;;;1.33;0.90;;;3.80;99.90;;;;;;5078885;28;20153;-62
2021/01/24 05:39:29;;;;;;;4.47;1.60;;;3.80;99.90;;;;;;5090280;28;20020;-62
2021/01/24 05:41:57;;;;;;;2.30;1.30;;;4.00;99.90;;;;;;5087382;28;20028;-62
2021/01/24 05:44:24;;;;;;;1.25;1.00;;;3.70;99.90;;;;;;5075283;28;20031;-62
2021/01/24 05:46:53;;;;;;;2.92;1.90;;;3.70;99.90;;;;;;5087608;28;20089;-61
2021/01/24 05:49:29;;;;;;;3.58;2.20;;;3.70;99.90;;;;;;5090456;28;20105;-62
2021/01/24 05:52:02;;;;;;;1.48;1.38;;;3.70;99.90;;;;;;5082526;28;20032;-62
2021/01/24 05:54:42;;;;;;;1.95;1.60;;;3.80;99.90;;;;;;5070574;28;20020;-62
2021/01/24 05:57:10;;;;;;;2.13;1.15;;;3.80;99.90;;;;;;5085923;28;20035;-61
2021/01/24 05:59:58;;;;;;;0.93;0.70;;;3.80;99.90;;;;;;5090559;28;20025;-62
2021/01/24 06:02:27;;;;;;;1.23;0.65;;;3.80;99.90;;;;;;5079606;28;20154;-61
2021/01/24 06:04:53;;;;;;;2.08;0.55;;;3.80;99.90;;;;;;5085564;28;20035;-62
2021/01/24 06:07:19;;;;;;;0.90;0.47;;;3.70;99.90;;;;;;5080988;28;20606;-62
2021/01/24 06:09:46;;;;;;;0.50;0.30;;;3.70;99.90;;;;;;5070600;28;20024;-62
2021/01/24 06:12:15;;;;;;;0.80;0.43;;;3.80;99.90;;;;;;5081400;28;20404;-67
2021/01/24 06:14:46;;;;;;;0.40;0.40;;;3.90;99.90;;;;;;5070483;28;20044;-63
2021/01/24 06:17:38;;;;;;;0.68;0.40;;;4.20;99.90;;;;;;5081150;28;20036;-63
2021/01/24 06:20:06;;;;;;;0.70;0.40;;;4.00;99.90;;;;;;5083084;28;20040;-63
2021/01/24 06:22:47;;;;;;;1.90;0.60;;;4.10;99.90;;;;;;5078924;28;20081;-62
2021/01/24 06:25:21;;;;;;;1.23;1.10;;;4.00;99.90;;;;;;5079733;28;20104;-62
2021/01/24 06:28:09;;;;;;;2.25;1.10;;;3.80;99.90;;;;;;5089393;28;20499;-62
2021/01/24 06:30:36;;;;;;;1.55;0.88;;;3.70;99.90;;;;;;5084583;28;20028;-68
2021/01/24 06:33:16;;;;;;;3.88;2.63;;;3.80;99.90;;;;;;5089158;28;20024;-63
2021/01/24 06:35:56;;;;;;;1.73;1.02;;;3.80;99.90;;;;;;5087133;28;20028;-65
2021/01/24 06:38:42;;;;;;;2.78;0.60;;;3.90;99.90;;;;;;5089219;28;20023;-63
2021/01/24 06:41:10;;;;;;;2.22;1.50;;;3.90;99.90;;;;;;5084709;28;20411;-65
2021/01/24 06:43:46;;;;;;;1.55;1.00;;;3.80;99.90;;;;;;5089286;28;20012;-68
2021/01/24 06:46:21;;;;;;;1.83;0.63;;;3.80;99.90;;;;;;5085063;28;20052;-66
2021/01/24 06:48:49;;;;;;;1.02;0.50;;;3.70;99.90;;;;;;5086719;28;20074;-65
2021/01/24 06:51:33;;;;;;;1.60;0.60;;;3.80;99.90;;;;;;5087156;28;20040;-66
2021/01/24 06:54:03;;;;;;;0.40;0.40;;;3.80;99.90;;;;;;5089589;28;20028;-65
2021/01/24 06:56:40;;;;;;;1.27;0.80;;;3.90;99.90;;;;;;5079564;28;20020;-63
2021/01/24 06:59:06;;;;;;;1.58;0.45;;;4.00;99.90;;;;;;5089549;28;20488;-63
2021/01/24 07:01:33;;;;;;;0.60;0.45;;;4.00;99.90;;;;;;5083134;28;20123;-63
2021/01/24 07:04:17;;;;;;;1.13;0.52;;;3.80;99.90;;;;;;5071137;28;20024;-62
2021/01/24 07:06:56;;;;;;;2.55;1.02;;;3.80;99.90;;;;;;5080532;28;20036;-63
2021/01/24 07:09:25;;;;;;;1.00;0.95;;;3.80;99.90;;;;;;5069677;28;20516;-63
2021/01/24 07:11:51;;;;;;;2.05;0.90;;;3.90;99.90;;;;;;5060320;28;20026;-63
2021/01/24 07:14:39;;;;;;;1.10;0.73;;;3.70;99.90;;;;;;5073351;28;20504;-63
2021/01/24 07:17:19;;;;;;;0.88;0.63;;;3.70;99.90;;;;;;5080265;28;20049;-62
2021/01/24 07:19:53;;;;;;;0.90;0.70;;;3.70;99.90;;;;;;5073591;28;20033;-63
2021/01/24 07:22:21;;;;;;;1.90;0.90;;;3.70;99.90;;;;;;5082424;28;20043;-63
2021/01/24 07:24:48;;;;;;;1.70;0.85;;;3.80;99.90;;;;;;5092551;28;20020;-64
2021/01/24 07:27:28;;;;;;;1.63;0.95;;;3.90;99.90;;;;;;5084491;28;20021;-65
2021/01/24 07:29:54;;;;;;;0.80;0.80;;;3.90;99.90;;;;;;5090287;28;20118;-65
2021/01/24 07:32:23;;;;;;;1.92;0.70;;;3.80;99.90;;;;;;5083755;28;20105;-66
2021/01/24 07:34:51;;;;;;;1.00;0.90;;;3.90;99.90;;;;;;5073092;28;20051;-66
2021/01/24 07:37:17;;;;;;;1.50;1.00;;;3.80;99.90;;;;;;5084066;28;20023;-65
2021/01/24 07:39:44;;;;;;;2.97;0.95;;;3.80;99.90;;;;;;5073163;28;20056;-65
2021/01/24 07:42:10;;;;;;;1.17;1.00;;;3.90;99.90;;;;;;5084006;28;20028;-66
2021/01/24 07:44:38;;;;;;;1.70;0.88;;;3.90;99.90;;;;;;5072890;28;20032;-65
2021/01/24 07:47:04;;;;;;;1.40;0.70;;;3.80;99.90;;;;;;5084250;28;20044;-66
2021/01/24 07:49:30;;;;;;;1.48;0.55;;;3.90;99.90;;;;;;5072842;28;20070;-65
2021/01/24 07:51:56;;;;;;;2.92;0.90;;;3.90;99.90;;;;;;5084185;28;20028;-67
2021/01/24 07:54:22;;;;;;;1.08;0.77;;;4.10;99.90;;;;;;5072770;28;20020;-65
2021/01/24 07:56:48;;;;;;;1.25;0.70;;;4.00;99.90;;;;;;5084090;28;20028;-65
2021/01/24 07:59:15;;;;;;;2.35;0.90;;;4.10;99.90;;;;;;5072789;28;20043;-65
2021/01/24 08:01:41;;;;;;;0.70;0.60;;;4.10;99.90;;;;;;5083269;28;20131;-65
2021/01/24 08:04:07;;;;;;;1.10;1.00;;;4.20;99.90;;;;;;5073108;28;20512;-65
2021/01/24 08:06:37;;;;;;;0.85;0.80;;;4.00;99.90;;;;;;5081870;28;20480;-65
2021/01/24 08:09:05;;;;;;;0.80;0.80;;;4.00;99.90;;;;;;5073852;28;20477;-65
2021/01/24 08:11:31;;;;;;;1.00;1.00;;;4.00;99.90;;;;;;5081576;28;20520;-65
2021/01/24 08:13:57;;;;;;;1.20;1.10;;;4.10;99.90;;;;;;5074503;28;20025;-65
2021/01/24 08:16:28;;;;;;;1.45;1.35;;;4.10;99.90;;;;;;5090106;28;20503;-65
2021/01/24 08:18:56;;;;;;;1.17;1.08;;;4.30;99.90;;;;;;5091718;28;20424;-65
2021/01/24 08:21:22;;;;;;;1.42;1.33;;;4.10;99.90;;;;;;5087616;28;20136;-65
2021/01/24 08:23:49;;;;;;;1.20;1.08;;;4.10;99.90;;;;;;5091431;28;20515;-66
2021/01/24 08:26:15;;;;;;;0.90;0.90;;;4.10;99.90;;;;;;5085472;28;20114;-65
2021/01/24 08:28:42;;;;;;;1.20;1.08;;;4.20;99.90;;;;;;5076516;28;20100;-67
2021/01/24 08:31:08;;;;;;;2.20;2.00;;;4.40;99.90;;;;;;5077952;28;20028;-65
2021/01/24 08:33:35;;;;;;;1.75;1.65;;;4.50;99.90;;;;;;5070824;28;20094;-65
2021/01/24 08:36:17;;;;;;;2.90;2.25;;;4.50;99.90;;;;;;5076773;28;20089;-65
2021/01/24 08:38:45;;;;;;;1.98;1.77;;;4.50;99.90;;;;;;5075952;28;20584;-60
2021/01/24 08:41:12;;;;;;;1.08;0.95;;;4.40;99.90;;;;;;5078103;28;20404;-60
2021/01/24 08:43:39;;;;;;;1.17;0.65;;;4.60;99.90;;;;;;5076711;28;20025;-70
2021/01/24 08:46:25;;;;;;;1.02;0.75;;;4.80;99.90;;;;;;5076933;28;20136;-62
2021/01/24 08:49:24;;;;;;;1.20;1.00;;;4.70;99.90;;;;;;5074589;28;20488;-62
2021/01/24 08:51:49;;;;;;;2.47;1.02;;;4.80;99.90;;;;;;5068371;28;20067;-62
2021/01/24 08:54:16;;;;;;;0.50;0.50;;;4.70;99.90;;;;;;5071745;28;20064;-62
2021/01/24 08:56:42;;;;;;;0.73;0.70;;;4.70;99.90;;;;;;5072753;28;20385;-65
2021/01/24 08:59:20;;;;;;;0.60;0.60;;;4.70;99.90;;;;;;5091539;28;20030;-62
2021/01/24 09:01:52;;;;;;;1.10;0.68;;;4.60;99.90;;;;;;5085193;28;20028;-62
2021/01/24 09:04:29;;;;;;;0.95;0.95;;;4.80;99.90;;;;;;5091018;28;20515;-68
2021/01/24 09:06:59;;;;;;;1.30;1.02;;;4.60;99.90;;;;;;5079838;28;20128;-60
2021/01/24 09:09:30;;;;;;;0.60;0.60;;;4.70;99.90;;;;;;5089863;28;20099;-60
2021/01/24 09:11:57;;;;;;;0.77;0.68;;;4.60;99.90;;;;;;5087058;28;20028;-61
2021/01/24 09:14:23;;;;;;;0.50;0.50;;;4.90;99.90;;;;;;5071178;28;20666;-59
2021/01/24 09:17:03;;;;;;;0.70;0.50;;;4.80;99.90;;;;;;5084133;28;20031;-59
2021/01/24 09:19:29;;;;;;;1.10;0.70;;;4.90;99.90;;;;;;5105234;28;20397;-60
2021/01/24 09:21:55;;;;;;;0.73;0.52;;;4.80;99.90;;;;;;5084477;28;20044;-64
2021/01/24 09:24:21;;;;;;;0.80;0.80;;;4.90;99.90;;;;;;5090493;28;20023;-60
2021/01/24 09:26:47;;;;;;;0.80;0.73;;;4.90;99.90;;;;;;5088337;28;20028;-59
2021/01/24 09:29:16;;;;;;;1.10;1.00;;;4.90;99.90;;;;;;5090914;28;20087;-60
2021/01/24 09:31:42;;;;;;;0.70;0.65;;;5.00;99.90;;;;;;5082070;28;20024;-60
2021/01/24 09:34:08;;;;;;;0.60;0.60;;;5.00;99.90;;;;;;5090470;28;20127;-61
2021/01/24 09:36:34;;;;;;;0.50;0.50;;;5.10;99.90;;;;;;5082813;28;20043;-60
2021/01/24 09:38:59;;;;;;;1.95;0.30;;;5.20;99.90;;;;;;5072908;28;20069;-61
2021/01/24 09:41:26;;;;;;;0.60;0.60;;;5.10;99.90;;;;;;5078682;28;20040;-60
2021/01/24 09:43:52;;;;;;;0.80;0.80;;;5.30;99.90;;;;;;5090775;28;20058;-63
2021/01/24 09:46:18;;;;;;;0.90;0.80;;;5.40;99.90;;;;;;5082583;28;20090;-60
2021/01/24 09:48:43;;;;;;;0.70;0.70;;;5.40;99.90;;;;;;5086845;28;20035;-60
2021/01/24 09:51:09;;;;;;;1.40;0.88;;;5.30;99.90;;;;;;5087280;28;20031;-61
2021/01/24 09:53:39;;;;;;;1.20;1.00;;;5.40;99.90;;;;;;5089854;28;20103;-61
2021/01/24 09:56:06;;;;;;;0.65;0.65;;;5.30;99.90;;;;;;5084395;28;20447;-60
2021/01/24 09:58:32;;;;;;;1.10;0.90;;;5.20;99.90;;;;;;5082530;28;20020;-59
2021/01/24 10:00:58;;;;;;;0.88;0.88;;;5.40;99.90;;;;;;5083206;28;20032;-59
2021/01/24 10:03:24;;;;;;;0.75;0.70;;;5.80;99.90;;;;;;5083903;28;20484;-60
2021/01/24 10:05:51;;;;;;;4.10;1.55;;;6.10;99.90;;;;;;5082314;28;20025;-61
2021/01/24 10:08:16;;;;;;;1.13;1.08;;;7.40;99.90;;;;;;5081423;28;20066;-60
2021/01/24 10:10:45;;;;;;;1.10;0.98;;;7.10;99.90;;;;;;5082834;28;20063;-60
2021/01/24 10:13:12;;;;;;;4.32;0.80;;;7.10;99.90;;;;;;5081291;28;20091;-59
2021/01/24 10:15:38;;;;;;;1.08;0.98;;;7.40;99.90;;;;;;5084402;28;20063;-59
2021/01/24 10:18:03;;;;;;;1.13;0.98;;;7.30;99.90;;;;;;5088784;28;20061;-59
2021/01/24 10:20:29;;;;;;;2.17;1.50;;;7.70;99.90;;;;;;5084831;28;20044;-53
2021/01/24 10:22:55;;;;;;;2.72;2.53;;;9.10;99.90;;;;;;5078633;28;20063;-59
2021/01/24 10:25:20;;;;;;;2.17;1.98;;;8.30;99.90;;;;;;5081543;28;20066;-59
2021/01/24 10:27:46;;;;;;;0.73;0.73;;;7.60;99.90;;;;;;5088247;28;20020;-59
2021/01/24 10:30:13;;;;;;;2.17;1.98;;;7.60;99.90;;;;;;5087699;28;20062;-59
2021/01/24 10:32:40;;;;;;;2.95;2.67;;;7.40;99.90;;;;;;5069514;28;20058;-58
2021/01/24 10:35:07;;;;;;;1.65;1.55;;;7.00;99.90;;;;;;5086742;28;20171;-58
2021/01/24 10:37:33;;;;;;;1.10;1.00;;;7.10;99.90;;;;;;5091197;28;20094;-58
2021/01/24 10:40:00;;;;;;;1.25;0.90;;;7.20;99.90;;;;;;5088366;28;20031;-58
2021/01/24 10:42:25;;;;;;;1.25;1.15;;;7.60;99.90;;;;;;5087256;28;20032;-59
2021/01/24 10:44:51;;;;;;;1.27;1.17;;;7.90;99.90;;;;;;5070506;28;20112;-59
2021/01/24 10:47:17;;;;;;;1.00;0.60;;;8.30;99.90;;;;;;5088664;28;20031;-59
2021/01/24 10:49:43;;;;;;;1.63;0.90;;;8.30;99.90;;;;;;5093593;28;20099;-58
2021/01/24 10:52:08;;;;;;;0.55;0.50;;;8.20;99.90;;;;;;5084796;28;20031;-59
2021/01/24 10:54:35;;;;;;;0.82;0.80;;;8.30;99.90;;;;;;5087962;28;20024;-59
2021/01/24 10:57:01;;;;;;;2.05;0.80;;;8.30;99.90;;;;;;5081510;28;20420;-58
2021/01/24 10:59:26;;;;;;;0.93;0.68;;;8.10;99.90;;;;;;5080842;28;20024;-59
2021/01/24 11:01:52;;;;;;;2.03;0.80;;;8.10;99.90;;;;;;5082609;28;20031;-58
2021/01/24 11:04:18;;;;;;;0.77;0.77;;;7.90;99.90;;;;;;5068767;28;20021;-59
2021/01/24 11:06:44;;;;;;;0.80;0.80;;;7.80;99.90;;;;;;5079893;28;20071;-60
2021/01/24 11:09:09;;;;;;;0.52;0.52;;;8.40;99.90;;;;;;5070107;28;20060;-59
2021/01/24 11:11:35;;;;;;;0.50;0.50;;;8.00;99.90;;;;;;5078855;28;20468;-59
2021/01/24 11:14:01;;;;;;;0.60;0.60;;;8.30;99.90;;;;;;5071401;28;20028;-59
2021/01/24 11:16:26;;;;;;;0.63;0.63;;;8.50;99.90;;;;;;5077645;28;20031;-59
2021/01/24 11:18:52;;;;;;;0.70;0.63;;;8.30;99.90;;;;;;5086637;28;20603;-59
2021/01/24 11:21:18;;;;;;;0.40;0.38;;;8.60;99.90;;;;;;5082697;28;20032;-59
2021/01/24 11:23:43;;;;;;;0.80;0.50;;;9.10;99.90;;;;;;5073756;28;20503;-59
2021/01/24 11:26:09;;;;;;;0.60;0.45;;;9.00;99.90;;;;;;5075067;28;20073;-59
2021/01/24 11:28:35;;;;;;;0.60;0.60;;;9.10;99.90;;;;;;5074612;28;20063;-59
2021/01/24 11:31:01;;;;;;;0.88;0.60;;;9.00;99.90;;;;;;5073621;28;20052;-59
2021/01/24 11:33:26;;;;;;;0.50;0.50;;;8.90;99.90;;;;;;5076017;28;20032;-59
2021/01/24 11:35:52;;;;;;;0.55;0.50;;;8.90;99.90;;;;;;5072187;28;20035;-59
2021/01/24 11:38:17;;;;;;;0.47;0.40;;;8.80;99.90;;;;;;5077207;28;20036;-59
2021/01/24 11:40:43;;;;;;;0.60;0.60;;;9.00;99.90;;;;;;5071484;28;20238;-59
2021/01/24 11:43:09;;;;;;;0.55;0.55;;;8.90;99.90;;;;;;5078050;28;20146;-59
2021/01/24 11:45:35;;;;;;;0.70;0.70;;;9.00;99.90;;;;;;5071196;28;20063;-58
2021/01/24 11:48:02;;;;;;;0.82;0.50;;;9.60;99.90;;;;;;5077984;28;20020;-59
2021/01/24 11:50:28;;;;;;;0.30;0.30;;;9.60;99.90;;;;;;5071473;28;20036;-59
2021/01/24 11:52:54;;;;;;;0.50;0.40;;;9.60;99.90;;;;;;5077925;28;20066;-59
2021/01/24 11:55:19;;;;;;;1.60;0.40;;;9.50;99.90;;;;;;5071312;28;20032;-59
2021/01/24 11:57:45;;;;;;;0.50;0.40;;;9.50;99.90;;;;;;5077841;28;20021;-59
2021/01/24 12:00:11;;;;;;;0.30;0.30;;;9.10;99.90;;;;;;5072813;28;20131;-59
2021/01/24 12:02:37;;;;;;;0.47;0.47;;;9.00;99.90;;;;;;5081891;28;20021;-59
2021/01/24 12:05:03;;;;;;;1.38;0.32;;;9.10;99.90;;;;;;5073067;28;20079;-59
2021/01/24 12:07:28;;;;;;;0.65;0.60;;;9.00;99.90;;;;;;5082803;28;20024;-59
2021/01/24 12:09:54;;;;;;;1.23;0.40;;;9.00;99.90;;;;;;5072836;28;20035;-59
2021/01/24 12:12:20;;;;;;;0.68;0.50;;;9.00;99.90;;;;;;5083426;28;20023;-59
2021/01/24 12:14:45;;;;;;;0.30;0.30;;;9.00;99.90;;;;;;5072250;28;20064;-59
2021/01/24 12:17:11;;;;;;;0.52;0.40;;;9.00;99.90;;;;;;5084018;28;20040;-59
2021/01/24 12:19:37;;;;;;;2.22;0.28;;;8.90;99.90;;;;;;5092349;28;20471;-59
2021/01/24 12:22:02;;;;;;;0.85;0.50;;;8.90;99.90;;;;;;5084200;28;20028;-59
2021/01/24 12:24:28;;;;;;;1.08;0.50;;;9.10;99.90;;;;;;5072231;28;20031;-59
2021/01/24 12:26:54;;;;;;;0.63;0.63;;;9.10;99.90;;;;;;5083504;28;20032;-59
2021/01/24 12:29:19;;;;;;;0.30;0.30;;;9.10;99.90;;;;;;5072310;28;20020;-59
2021/01/24 12:31:45;;;;;;;0.88;0.77;;;9.00;99.90;;;;;;5082537;28;20073;-58
2021/01/24 12:34:11;;;;;;;0.73;0.73;;;9.00;99.90;;;;;;5072631;28;20052;-59
2021/01/24 12:36:37;;;;;;;0.80;0.70;;;9.00;99.90;;;;;;5081271;28;20032;-59
2021/01/24 12:39:03;;;;;;;0.80;0.70;;;9.00;99.90;;;;;;5073947;28;20387;-59
2021/01/24 12:41:29;;;;;;;0.73;0.60;;;9.10;99.90;;;;;;5079951;28;20476;-59
2021/01/24 12:43:55;;;;;;;1.48;1.10;;;9.00;99.90;;;;;;5074875;28;20056;-59
2021/01/24 12:46:21;;;;;;;1.67;0.50;;;8.90;99.90;;;;;;5078651;28;20610;-59
2021/01/24 12:48:46;;;;;;;0.60;0.60;;;9.00;99.90;;;;;;5076078;28;20423;-59
2021/01/24 12:51:12;;;;;;;0.60;0.50;;;8.90;99.90;;;;;;5077210;28;20686;-59
2021/01/24 12:53:38;;;;;;;0.47;0.47;;;8.90;99.90;;;;;;5077131;28;20591;-59
2021/01/24 12:56:04;;;;;;;1.02;0.68;;;9.00;99.90;;;;;;5076265;28;20150;-59
2021/01/24 12:58:31;;;;;;;0.70;0.70;;;9.00;99.90;;;;;;5078237;28;20099;-60
2021/01/24 13:00:57;;;;;;;0.45;0.45;;;9.00;99.90;;;;;;5076954;28;20028;-59